createdAt,value
2022-11-22T00:00:53.720Z,986.4
2022-11-22T00:02:10.031Z,986.4
2022-11-22T00:03:26.312Z,986.4
2022-11-22T00:04:42.612Z,986.4
2022-11-22T00:05:58.908Z,986.4
2022-11-22T00:07:15.202Z,986.4
2022-11-22T00:08:31.505Z,986.4
2022-11-22T00:09:47.793Z,986.3
2022-11-22T00:11:04.099Z,986.3
2022-11-22T00:12:19.395Z,986.3
2022-11-22T00:13:35.693Z,986.3
2022-11-22T00:14:51.983Z,986.3
2022-11-22T00:16:08.288Z,986.3
2022-11-22T00:17:24.591Z,986.2
2022-11-22T00:18:40.872Z,986.3
2022-11-22T00:19:57.182Z,986.3
2022-11-22T00:21:13.482Z,986.3
2022-11-22T00:22:29.754Z,986.3
2022-11-22T00:23:46.056Z,986.2
2022-11-22T00:25:02.362Z,986.2
2022-11-22T00:26:18.647Z,986.3
2022-11-22T00:27:34.935Z,986.3
2022-11-22T00:28:50.243Z,986.3
2022-11-22T00:30:06.538Z,986.3
2022-11-22T00:31:22.840Z,986.3
2022-11-22T00:32:39.131Z,986.3
2022-11-22T00:33:55.438Z,986.3
2022-11-22T00:35:11.741Z,986.4
2022-11-22T00:36:28.036Z,986.4
2022-11-22T00:37:44.318Z,986.4
2022-11-22T00:39:00.614Z,986.4
2022-11-22T00:40:16.910Z,986.4
2022-11-22T00:41:33.201Z,986.4
2022-11-22T00:42:49.507Z,986.4
2022-11-22T00:44:05.797Z,986.5
2022-11-22T00:45:21.109Z,986.4
2022-11-22T00:46:37.401Z,986.4
2022-11-22T00:47:53.699Z,986.4
2022-11-22T00:49:09.986Z,986.4
2022-11-22T00:50:26.278Z,986.3
2022-11-22T00:51:42.591Z,986.3
2022-11-22T00:52:58.870Z,986.4
2022-11-22T00:54:15.164Z,986.4
2022-11-22T00:55:31.468Z,986.4
2022-11-22T00:56:47.772Z,986.3
2022-11-22T00:58:04.048Z,986.4
2022-11-22T00:59:20.349Z,986.4
2022-11-22T01:00:36.642Z,986.3
2022-11-22T01:01:51.952Z,986.3
2022-11-22T01:03:08.247Z,986.3
2022-11-22T01:04:24.547Z,986.2
2022-11-22T01:05:40.836Z,986.2
2022-11-22T01:06:57.144Z,986.2
2022-11-22T01:08:13.424Z,986.1
2022-11-22T01:09:29.726Z,986.2
2022-11-22T01:10:46.010Z,986.1
2022-11-22T01:12:02.318Z,986.1
2022-11-22T01:13:18.605Z,986.2
2022-11-22T01:14:34.897Z,986.3
2022-11-22T01:15:51.190Z,986.2
2022-11-22T01:17:07.492Z,986.1
2022-11-22T01:18:22.813Z,986.2
2022-11-22T01:19:39.100Z,986.2
2022-11-22T01:20:55.390Z,986.2
2022-11-22T01:22:11.695Z,986.2
2022-11-22T01:23:27.991Z,986.2
2022-11-22T01:24:44.290Z,986.2
2022-11-22T01:26:00.580Z,986.1
2022-11-22T01:27:16.878Z,986.1
2022-11-22T01:28:33.160Z,986.1
2022-11-22T01:29:49.457Z,986.2
2022-11-22T01:31:05.757Z,986.1
2022-11-22T01:32:22.055Z,986.1
2022-11-22T01:33:38.356Z,986.1
2022-11-22T01:34:53.668Z,986.1
2022-11-22T01:36:09.954Z,986.1
2022-11-22T01:37:26.244Z,986.1
2022-11-22T01:38:42.548Z,986.1
2022-11-22T01:39:58.835Z,986.1
2022-11-22T01:41:15.123Z,986.1
2022-11-22T01:42:31.428Z,986.1
2022-11-22T01:43:47.719Z,986.1
2022-11-22T01:45:04.015Z,986.1
2022-11-22T01:46:20.306Z,986.1
2022-11-22T01:47:36.605Z,986.1
2022-11-22T01:48:52.916Z,986.1
2022-11-22T01:50:09.192Z,986.1
2022-11-22T01:51:24.517Z,986
2022-11-22T01:52:40.802Z,986
2022-11-22T01:53:57.090Z,986
2022-11-22T01:55:13.398Z,986
2022-11-22T01:56:29.686Z,986
2022-11-22T01:57:45.981Z,986
2022-11-22T01:59:01.290Z,986
2022-11-22T02:00:17.596Z,985.9
2022-11-22T02:01:33.895Z,985.9
2022-11-22T02:02:50.183Z,985.9
2022-11-22T02:04:06.482Z,985.8
2022-11-22T02:05:22.766Z,985.8
2022-11-22T02:06:39.083Z,985.8
2022-11-22T02:07:55.362Z,985.7
2022-11-22T02:09:11.658Z,985.7
2022-11-22T02:10:27.955Z,985.6
2022-11-22T02:11:44.250Z,985.6
2022-11-22T02:13:00.545Z,985.6
2022-11-22T02:14:16.834Z,985.7
2022-11-22T02:15:32.158Z,985.7
2022-11-22T02:16:48.436Z,985.6
2022-11-22T02:18:04.737Z,985.6
2022-11-22T02:19:21.035Z,985.5
2022-11-22T02:20:37.334Z,985.5
2022-11-22T02:21:53.625Z,985.6
2022-11-22T02:23:09.934Z,985.5
2022-11-22T02:24:26.217Z,985.4
2022-11-22T02:25:42.504Z,985.4
2022-11-22T02:26:58.806Z,985.4
2022-11-22T02:28:15.095Z,985.3
2022-11-22T02:29:31.396Z,985.3
2022-11-22T02:30:47.696Z,985.4
2022-11-22T02:32:03.002Z,985.3
2022-11-22T02:33:19.291Z,985.3
2022-11-22T02:34:35.592Z,985.3
2022-11-22T02:35:51.899Z,985.4
2022-11-22T02:37:08.191Z,985.3
2022-11-22T02:38:24.483Z,985.2
2022-11-22T02:39:40.781Z,985.2
2022-11-22T02:40:57.074Z,985.2
2022-11-22T02:42:13.368Z,985.1
2022-11-22T02:43:29.661Z,985.1
2022-11-22T02:44:45.951Z,985
2022-11-22T02:46:02.257Z,985.1
2022-11-22T02:47:18.537Z,985
2022-11-22T02:48:33.856Z,985
2022-11-22T02:49:50.155Z,985.1
2022-11-22T02:51:06.439Z,985.2
2022-11-22T02:52:22.738Z,985.2
2022-11-22T02:53:39.026Z,985.2
2022-11-22T02:54:55.327Z,985.1
2022-11-22T02:56:11.628Z,985.3
2022-11-22T02:57:27.919Z,985.2
2022-11-22T02:58:44.229Z,985.3
2022-11-22T03:00:00.510Z,985.3
2022-11-22T03:01:16.806Z,985.3
2022-11-22T03:02:33.097Z,985.2
2022-11-22T03:03:49.391Z,985.2
2022-11-22T03:05:04.700Z,985.2
2022-11-22T03:06:21.009Z,985.3
2022-11-22T03:07:37.293Z,985.2
2022-11-22T03:08:53.608Z,985.2
2022-11-22T03:10:09.879Z,985.2
2022-11-22T03:11:26.173Z,985.2
2022-11-22T03:12:42.468Z,985.2
2022-11-22T03:13:58.765Z,985.2
2022-11-22T03:15:15.070Z,985.2
2022-11-22T03:16:31.350Z,985.3
2022-11-22T03:17:47.662Z,985.4
2022-11-22T03:19:03.940Z,985.4
2022-11-22T03:20:20.252Z,985.3
2022-11-22T03:21:35.558Z,985.3
2022-11-22T03:22:51.845Z,985.3
2022-11-22T03:24:08.151Z,985.3
2022-11-22T03:25:24.432Z,985.2
2022-11-22T03:26:40.727Z,985.2
2022-11-22T03:27:57.021Z,985.2
2022-11-22T03:29:13.326Z,985.2
2022-11-22T03:30:29.611Z,985.1
2022-11-22T03:31:45.914Z,985.1
2022-11-22T03:33:02.217Z,985.2
2022-11-22T03:34:18.499Z,985.1
2022-11-22T03:35:34.798Z,985.1
2022-11-22T03:36:51.098Z,985.2
2022-11-22T03:38:06.407Z,985.1
2022-11-22T03:39:22.700Z,985.1
2022-11-22T03:40:38.991Z,985.1
2022-11-22T03:41:55.288Z,985.1
2022-11-22T03:43:11.580Z,985.1
2022-11-22T03:44:27.881Z,985.1
2022-11-22T03:45:44.170Z,985.1
2022-11-22T03:47:00.462Z,985.2
2022-11-22T03:48:16.765Z,985.1
2022-11-22T03:49:33.063Z,985.2
2022-11-22T03:50:49.362Z,985.2
2022-11-22T03:52:05.652Z,985.1
2022-11-22T03:53:21.952Z,985.1
2022-11-22T03:54:37.264Z,985.1
2022-11-22T03:55:53.547Z,985.1
2022-11-22T03:57:09.848Z,985.1
2022-11-22T03:58:26.141Z,985
2022-11-22T03:59:42.428Z,985.1
2022-11-22T04:00:58.734Z,985
2022-11-22T04:02:15.027Z,985.1
2022-11-22T04:03:31.313Z,985
2022-11-22T04:04:47.606Z,985
2022-11-22T04:06:03.910Z,985
2022-11-22T04:07:20.203Z,985
2022-11-22T04:08:36.502Z,985
2022-11-22T04:09:52.797Z,985
2022-11-22T04:11:08.102Z,984.9
2022-11-22T04:12:24.400Z,984.8
2022-11-22T04:13:40.692Z,984.9
2022-11-22T04:14:56.990Z,984.9
2022-11-22T04:16:13.284Z,984.9
2022-11-22T04:17:29.577Z,985
2022-11-22T04:18:45.889Z,984.9
2022-11-22T04:20:02.185Z,984.9
2022-11-22T04:21:18.464Z,985
2022-11-22T04:22:34.762Z,985
2022-11-22T04:23:51.053Z,985
2022-11-22T04:25:07.364Z,985
2022-11-22T04:26:23.652Z,984.9
2022-11-22T04:27:38.958Z,984.9
2022-11-22T04:28:55.245Z,984.9
2022-11-22T04:30:11.548Z,985
2022-11-22T04:31:27.847Z,984.9
2022-11-22T04:32:44.140Z,984.9
2022-11-22T04:34:00.437Z,984.9
2022-11-22T04:35:16.730Z,984.9
2022-11-22T04:36:33.027Z,984.9
2022-11-22T04:37:49.322Z,984.9
2022-11-22T04:39:05.622Z,984.9
2022-11-22T04:40:21.908Z,984.9
2022-11-22T04:41:38.201Z,984.8
2022-11-22T04:42:54.487Z,984.8
2022-11-22T04:44:09.808Z,984.8
2022-11-22T04:45:26.105Z,984.8
2022-11-22T04:46:42.393Z,984.8
2022-11-22T04:47:58.691Z,984.8
2022-11-22T04:49:14.983Z,984.8
2022-11-22T04:50:31.284Z,984.8
2022-11-22T04:51:47.578Z,984.8
2022-11-22T04:53:03.886Z,984.7
2022-11-22T04:54:20.166Z,984.7
2022-11-22T04:55:36.468Z,984.7
2022-11-22T04:56:52.763Z,984.6
2022-11-22T04:58:09.048Z,984.6
2022-11-22T04:59:25.339Z,984.7
2022-11-22T05:00:40.649Z,984.6
2022-11-22T05:01:56.955Z,984.7
2022-11-22T05:03:13.250Z,984.7
2022-11-22T05:04:29.554Z,984.7
2022-11-22T05:05:45.834Z,984.8
2022-11-22T05:07:02.126Z,984.8
2022-11-22T05:08:18.425Z,984.8
2022-11-22T05:09:34.724Z,984.8
2022-11-22T05:10:51.012Z,984.8
2022-11-22T05:12:07.305Z,984.8
2022-11-22T05:13:23.610Z,984.8
2022-11-22T05:14:39.903Z,984.8
2022-11-22T05:15:56.199Z,984.8
2022-11-22T05:17:11.512Z,984.9
2022-11-22T05:18:27.807Z,984.9
2022-11-22T05:19:44.104Z,984.9
2022-11-22T05:21:00.390Z,985
2022-11-22T05:22:16.679Z,984.9
2022-11-22T05:23:32.980Z,985.1
2022-11-22T05:24:49.267Z,985
2022-11-22T05:26:05.565Z,985.1
2022-11-22T05:27:21.860Z,985.1
2022-11-22T05:28:38.164Z,985
2022-11-22T05:29:54.461Z,985.1
2022-11-22T05:31:10.750Z,985
2022-11-22T05:32:27.040Z,985.1
2022-11-22T05:33:42.361Z,985.1
2022-11-22T05:34:58.645Z,985.2
2022-11-22T05:36:14.937Z,985.3
2022-11-22T05:37:31.242Z,985.3
2022-11-22T05:38:47.545Z,985.3
2022-11-22T05:40:03.833Z,985.3
2022-11-22T05:41:20.121Z,985.3
2022-11-22T05:42:36.421Z,985.3
2022-11-22T05:43:52.718Z,985.3
2022-11-22T05:45:09.013Z,985.2
2022-11-22T05:46:25.301Z,985.2
2022-11-22T05:47:41.593Z,985.3
2022-11-22T05:48:57.896Z,985.3
2022-11-22T05:50:13.206Z,985.2
2022-11-22T05:51:29.513Z,985.3
2022-11-22T05:52:45.787Z,985.3
2022-11-22T05:54:02.097Z,985.3
2022-11-22T05:55:18.386Z,985.4
2022-11-22T05:56:34.681Z,985.4
2022-11-22T05:57:50.991Z,985.3
2022-11-22T05:59:07.266Z,985.3
2022-11-22T06:00:23.557Z,985.3
2022-11-22T06:01:39.864Z,985.4
2022-11-22T06:02:56.150Z,985.4
2022-11-22T06:04:12.442Z,985.4
2022-11-22T06:05:28.698Z,985.4
2022-11-22T06:06:43.967Z,985.3
2022-11-22T06:08:00.259Z,985.4
2022-11-22T06:09:16.553Z,985.4
2022-11-22T06:10:32.802Z,985.4
2022-11-22T06:11:49.053Z,985.4
2022-11-22T06:13:05.303Z,985.4
2022-11-22T06:14:20.573Z,985.4
2022-11-22T06:15:36.814Z,985.5
2022-11-22T06:16:53.062Z,985.4
2022-11-22T06:18:09.283Z,985.5
2022-11-22T06:19:25.536Z,985.5
2022-11-22T06:20:41.765Z,985.5
2022-11-22T06:21:58.020Z,985.5
2022-11-22T06:23:14.251Z,985.4
2022-11-22T06:24:30.505Z,985.4
2022-11-22T06:25:46.740Z,985.4
2022-11-22T06:27:02.985Z,985.4
2022-11-22T06:28:19.231Z,985.5
2022-11-22T06:29:35.457Z,985.5
2022-11-22T06:30:50.718Z,985.5
2022-11-22T06:32:06.958Z,985.5
2022-11-22T06:33:23.201Z,985.5
2022-11-22T06:34:39.440Z,985.4
2022-11-22T06:35:55.692Z,985.5
2022-11-22T06:37:11.920Z,985.5
2022-11-22T06:38:28.169Z,985.5
2022-11-22T06:39:44.403Z,985.5
2022-11-22T06:41:00.637Z,985.5
2022-11-22T06:42:16.887Z,985.5
2022-11-22T06:43:33.137Z,985.5
2022-11-22T06:44:49.367Z,985.5
2022-11-22T06:46:05.606Z,985.5
2022-11-22T06:47:20.869Z,985.7
2022-11-22T06:48:37.100Z,985.6
2022-11-22T06:49:53.346Z,985.6
2022-11-22T06:51:09.590Z,985.6
2022-11-22T06:52:25.825Z,985.6
2022-11-22T06:53:42.070Z,985.6
2022-11-22T06:54:58.306Z,985.6
2022-11-22T06:56:14.550Z,985.6
2022-11-22T06:57:30.796Z,985.5
2022-11-22T06:58:47.032Z,985.5
2022-11-22T07:00:03.272Z,985.5
2022-11-22T07:01:19.522Z,985.5
2022-11-22T07:02:35.754Z,985.5
2022-11-22T07:03:51.018Z,985.5
2022-11-22T07:05:07.265Z,985.5
2022-11-22T07:06:23.501Z,985.5
2022-11-22T07:07:39.737Z,985.6
2022-11-22T07:08:55.981Z,985.5
2022-11-22T07:10:12.220Z,985.5
2022-11-22T07:11:28.455Z,985.5
2022-11-22T07:12:44.699Z,985.5
2022-11-22T07:14:00.957Z,985.5
2022-11-22T07:15:17.182Z,985.5
2022-11-22T07:16:33.426Z,985.5
2022-11-22T07:17:49.663Z,985.5
2022-11-22T07:19:05.909Z,985.6
2022-11-22T07:20:21.162Z,985.5
2022-11-22T07:21:37.413Z,985.5
2022-11-22T07:22:53.642Z,985.6
2022-11-22T07:24:09.886Z,985.6
2022-11-22T07:25:26.125Z,985.6
2022-11-22T07:26:42.365Z,985.5
2022-11-22T07:27:58.609Z,985.6
2022-11-22T07:29:14.855Z,985.6
2022-11-22T07:30:31.106Z,985.6
2022-11-22T07:31:47.329Z,985.6
2022-11-22T07:33:03.582Z,985.6
2022-11-22T07:34:19.823Z,985.6
2022-11-22T07:35:36.062Z,985.7
2022-11-22T07:36:51.311Z,985.7
2022-11-22T07:38:07.552Z,985.7
2022-11-22T07:39:23.790Z,985.6
2022-11-22T07:40:40.040Z,985.7
2022-11-22T07:41:56.269Z,985.7
2022-11-22T07:43:12.520Z,985.7
2022-11-22T07:44:28.759Z,985.6
2022-11-22T07:45:45.004Z,985.7
2022-11-22T07:47:01.236Z,985.7
2022-11-22T07:48:17.477Z,985.8
2022-11-22T07:49:33.732Z,985.7
2022-11-22T07:50:49.959Z,985.8
2022-11-22T07:52:06.205Z,985.8
2022-11-22T07:53:21.453Z,985.8
2022-11-22T07:54:37.691Z,985.8
2022-11-22T07:55:53.935Z,985.9
2022-11-22T07:57:10.177Z,985.9
2022-11-22T07:58:26.423Z,985.9
2022-11-22T07:59:42.654Z,985.8
2022-11-22T08:00:58.905Z,985.9
2022-11-22T08:02:15.150Z,985.8
2022-11-22T08:03:31.383Z,985.9
2022-11-22T08:04:47.638Z,985.9
2022-11-22T08:06:03.873Z,985.9
2022-11-22T08:07:20.111Z,985.9
2022-11-22T08:08:36.341Z,985.8
2022-11-22T08:09:51.600Z,985.8
2022-11-22T08:11:07.858Z,985.9
2022-11-22T08:12:24.088Z,985.8
2022-11-22T08:13:40.333Z,985.8
2022-11-22T08:14:56.577Z,985.8
2022-11-22T08:16:12.807Z,985.8
2022-11-22T08:17:29.063Z,985.9
2022-11-22T08:18:45.306Z,985.9
2022-11-22T08:20:01.531Z,985.9
2022-11-22T08:21:17.777Z,985.9
2022-11-22T08:22:34.022Z,985.9
2022-11-22T08:23:50.253Z,985.9
2022-11-22T08:25:06.489Z,985.8
2022-11-22T08:26:21.749Z,985.9
2022-11-22T08:27:37.991Z,985.8
2022-11-22T08:28:54.234Z,985.9
2022-11-22T08:30:10.470Z,985.9
2022-11-22T08:31:26.716Z,985.9
2022-11-22T08:32:42.966Z,985.8
2022-11-22T08:33:59.190Z,985.9
2022-11-22T08:35:15.438Z,985.9
2022-11-22T08:36:31.679Z,985.9
2022-11-22T08:37:47.921Z,985.9
2022-11-22T08:39:04.163Z,985.9
2022-11-22T08:40:20.411Z,985.9
2022-11-22T08:41:36.649Z,985.9
2022-11-22T08:42:51.895Z,985.9
2022-11-22T08:44:08.143Z,985.9
2022-11-22T08:45:24.385Z,985.9
2022-11-22T08:46:40.627Z,986
2022-11-22T08:47:56.880Z,986
2022-11-22T08:49:13.097Z,986
2022-11-22T08:50:29.349Z,986
2022-11-22T08:51:45.590Z,986
2022-11-22T08:53:01.817Z,986.1
2022-11-22T08:54:18.073Z,986
2022-11-22T08:55:34.312Z,986.1
2022-11-22T08:56:50.546Z,986.1
2022-11-22T08:58:06.781Z,986.1
2022-11-22T08:59:22.037Z,986.2
2022-11-22T09:00:38.289Z,986.2
2022-11-22T09:01:54.530Z,986.2
2022-11-22T09:03:10.764Z,986.2
2022-11-22T09:04:27.013Z,986.2
2022-11-22T09:05:43.255Z,986.3
2022-11-22T09:06:59.484Z,986.3
2022-11-22T09:08:15.727Z,986.4
2022-11-22T09:09:31.981Z,986.4
2022-11-22T09:10:48.223Z,986.4
2022-11-22T09:12:04.449Z,986.5
2022-11-22T09:13:20.698Z,986.5
2022-11-22T09:14:36.933Z,986.5
2022-11-22T09:15:52.203Z,986.5
2022-11-22T09:17:08.433Z,986.5
2022-11-22T09:18:24.674Z,986.5
2022-11-22T09:19:40.908Z,986.5
2022-11-22T09:20:57.158Z,986.5
2022-11-22T09:22:13.397Z,986.5
2022-11-22T09:23:29.642Z,986.5
2022-11-22T09:24:45.876Z,986.5
2022-11-22T09:26:02.128Z,986.5
2022-11-22T09:27:18.362Z,986.5
2022-11-22T09:28:34.592Z,986.4
2022-11-22T09:29:50.849Z,986.5
2022-11-22T09:31:07.078Z,986.6
2022-11-22T09:32:22.350Z,986.6
2022-11-22T09:33:38.585Z,986.5
2022-11-22T09:34:54.818Z,986.5
2022-11-22T09:36:11.068Z,986.5
2022-11-22T09:37:27.301Z,986.6
2022-11-22T09:38:43.543Z,986.6
2022-11-22T09:39:59.790Z,986.6
2022-11-22T09:41:16.026Z,986.5
2022-11-22T09:42:32.264Z,986.5
2022-11-22T09:43:48.516Z,986.5
2022-11-22T09:45:04.741Z,986.6
2022-11-22T09:46:20.991Z,986.6
2022-11-22T09:47:37.246Z,986.6
2022-11-22T09:48:52.476Z,986.7
2022-11-22T09:50:08.730Z,986.7
2022-11-22T09:51:24.968Z,986.7
2022-11-22T09:52:41.205Z,986.6
2022-11-22T09:53:57.450Z,986.6
2022-11-22T09:55:13.690Z,986.6
2022-11-22T09:56:29.931Z,986.6
2022-11-22T09:57:46.169Z,986.6
2022-11-22T09:59:02.408Z,986.7
2022-11-22T10:00:18.652Z,986.6
2022-11-22T10:01:34.904Z,986.6
2022-11-22T10:02:51.134Z,986.6
2022-11-22T10:04:07.375Z,986.6
2022-11-22T10:05:22.641Z,986.6
2022-11-22T10:06:38.871Z,986.6
2022-11-22T10:07:55.113Z,986.5
2022-11-22T10:09:11.353Z,986.6
2022-11-22T10:10:27.605Z,986.6
2022-11-22T10:11:43.846Z,986.6
2022-11-22T10:13:00.080Z,986.5
2022-11-22T10:14:16.326Z,986.5
2022-11-22T10:15:32.556Z,986.5
2022-11-22T10:16:48.804Z,986.5
2022-11-22T10:18:05.039Z,986.5
2022-11-22T10:19:21.290Z,986.5
2022-11-22T10:20:37.513Z,986.5
2022-11-22T10:21:52.782Z,986.5
2022-11-22T10:23:09.013Z,986.4
2022-11-22T10:24:25.260Z,986.5
2022-11-22T10:25:41.500Z,986.5
2022-11-22T10:26:57.740Z,986.5
2022-11-22T10:28:13.993Z,986.5
2022-11-22T10:29:29.247Z,986.5
2022-11-22T10:30:45.478Z,986.5
2022-11-22T10:32:01.718Z,986.5
2022-11-22T10:33:17.982Z,986.5
2022-11-22T10:34:34.226Z,986.5
2022-11-22T10:35:50.459Z,986.5
2022-11-22T10:37:06.683Z,986.6
2022-11-22T10:38:22.943Z,986.6
2022-11-22T10:39:39.173Z,986.7
2022-11-22T10:40:55.412Z,986.7
2022-11-22T10:42:11.651Z,986.7
2022-11-22T10:43:27.890Z,986.9
2022-11-22T10:44:44.142Z,986.7
2022-11-22T10:45:59.392Z,986.8
2022-11-22T10:47:15.646Z,986.8
2022-11-22T10:48:31.875Z,986.9
2022-11-22T10:49:48.110Z,986.8
2022-11-22T10:51:04.360Z,986.8
2022-11-22T10:52:20.597Z,986.8
2022-11-22T10:53:36.837Z,986.7
2022-11-22T10:54:53.070Z,986.7
2022-11-22T10:56:09.316Z,986.7
2022-11-22T10:57:25.554Z,986.6
2022-11-22T10:58:41.799Z,986.7
2022-11-22T10:59:58.033Z,986.6
2022-11-22T11:01:14.284Z,986.6
2022-11-22T11:02:29.535Z,986.6
2022-11-22T11:03:45.789Z,986.6
2022-11-22T11:05:02.020Z,986.6
2022-11-22T11:06:18.278Z,986.5
2022-11-22T11:07:34.502Z,986.6
2022-11-22T11:08:50.738Z,986.6
2022-11-22T11:10:06.987Z,986.6
2022-11-22T11:11:23.233Z,986.6
2022-11-22T11:12:39.471Z,986.5
2022-11-22T11:13:55.705Z,986.6
2022-11-22T11:15:11.940Z,986.6
2022-11-22T11:16:28.184Z,986.6
2022-11-22T11:17:44.432Z,986.6
2022-11-22T11:18:59.689Z,986.6
2022-11-22T11:20:15.922Z,986.6
2022-11-22T11:21:32.179Z,986.6
2022-11-22T11:22:48.400Z,986.6
2022-11-22T11:24:04.646Z,986.7
2022-11-22T11:25:20.889Z,986.7
2022-11-22T11:26:37.123Z,986.6
2022-11-22T11:27:53.378Z,986.6
2022-11-22T11:29:09.616Z,986.6
2022-11-22T11:30:25.843Z,986.6
2022-11-22T11:31:42.109Z,986.5
2022-11-22T11:32:58.334Z,986.5
2022-11-22T11:34:14.571Z,986.4
2022-11-22T11:35:29.824Z,986.5
2022-11-22T11:36:46.072Z,986.5
2022-11-22T11:38:02.318Z,986.4
2022-11-22T11:39:18.555Z,986.5
2022-11-22T11:40:34.798Z,986.4
2022-11-22T11:41:51.039Z,986.4
2022-11-22T11:43:07.272Z,986.4
2022-11-22T11:44:23.517Z,986.4
2022-11-22T11:45:39.761Z,986.4
2022-11-22T11:46:56.003Z,986.4
2022-11-22T11:48:12.242Z,986.4
2022-11-22T11:49:28.486Z,986.4
2022-11-22T11:50:44.727Z,986.4
2022-11-22T11:52:00.974Z,986.3
2022-11-22T11:53:16.209Z,986.4
2022-11-22T11:54:32.451Z,986.3
2022-11-22T11:55:48.710Z,986.4
2022-11-22T11:57:04.930Z,986.4
2022-11-22T11:58:21.195Z,986.4
2022-11-22T11:59:37.412Z,986.4
2022-11-22T12:00:53.657Z,986.4
2022-11-22T12:02:09.910Z,986.4
2022-11-22T12:03:26.139Z,986.5
2022-11-22T12:04:42.395Z,986.5
2022-11-22T12:05:58.631Z,986.4
2022-11-22T12:07:14.863Z,986.4
2022-11-22T12:08:31.117Z,986.4
2022-11-22T12:09:46.363Z,986.4
2022-11-22T12:11:02.602Z,986.4
2022-11-22T12:12:18.848Z,986.4
2022-11-22T12:13:35.087Z,986.4
2022-11-22T12:14:51.331Z,986.4
2022-11-22T12:16:07.569Z,986.4
2022-11-22T12:17:23.810Z,986.4
2022-11-22T12:18:40.047Z,986.3
2022-11-22T12:19:56.300Z,986.4
2022-11-22T12:21:12.533Z,986.4
2022-11-22T12:22:28.774Z,986.4
2022-11-22T12:23:45.015Z,986.4
2022-11-22T12:25:01.268Z,986.4
2022-11-22T12:26:16.501Z,986.4
2022-11-22T12:27:32.760Z,986.5
2022-11-22T12:28:49.002Z,986.4
2022-11-22T12:30:05.238Z,986.4
2022-11-22T12:31:21.486Z,986.5
2022-11-22T12:32:37.706Z,986.4
2022-11-22T12:33:53.951Z,986.4
2022-11-22T12:35:10.198Z,986.4
2022-11-22T12:36:26.440Z,986.4
2022-11-22T12:37:42.678Z,986.4
2022-11-22T12:40:15.156Z,986.4
2022-11-22T12:41:31.396Z,986.5
2022-11-22T12:42:46.652Z,986.5
2022-11-22T12:44:02.899Z,986.5
2022-11-22T12:45:19.138Z,986.5
2022-11-22T12:46:35.378Z,986.6
2022-11-22T12:47:51.609Z,986.5
2022-11-22T12:49:07.854Z,986.6
2022-11-22T12:50:24.109Z,986.5
2022-11-22T12:51:40.337Z,986.6
2022-11-22T12:52:56.580Z,986.5
2022-11-22T12:54:12.813Z,986.6
2022-11-22T12:55:29.065Z,986.5
2022-11-22T12:56:45.304Z,986.5
2022-11-22T12:58:01.539Z,986.5
2022-11-22T12:59:16.799Z,986.5
2022-11-22T13:00:33.041Z,986.6
2022-11-22T13:01:49.284Z,986.6
2022-11-22T13:03:05.521Z,986.5
2022-11-22T13:04:21.760Z,986.6
2022-11-22T13:05:38.017Z,986.5
2022-11-22T13:06:54.257Z,986.5
2022-11-22T13:08:10.482Z,986.4
2022-11-22T13:09:26.723Z,986.5
2022-11-22T13:10:42.969Z,986.5
2022-11-22T13:11:59.205Z,986.5
2022-11-22T13:13:15.456Z,986.5
2022-11-22T13:14:31.697Z,986.5
2022-11-22T13:15:46.950Z,986.5
2022-11-22T13:17:03.185Z,986.5
2022-11-22T13:18:19.431Z,986.7
2022-11-22T13:19:35.667Z,986.6
2022-11-22T13:28:29.367Z,986.6
2022-11-22T13:29:44.625Z,986.5
2022-11-22T13:30:59.873Z,986.5
2022-11-22T13:32:15.139Z,986.5
2022-11-22T13:33:30.399Z,986.5
2022-11-22T13:34:45.657Z,986.5
2022-11-22T13:36:00.916Z,986.5
2022-11-22T13:37:16.173Z,986.5
2022-11-22T13:38:31.429Z,986.5
2022-11-22T13:39:47.669Z,986.4
2022-11-22T13:41:03.921Z,986.4
2022-11-22T13:42:20.154Z,986.4
2022-11-22T13:43:36.386Z,986.4
2022-11-22T13:44:52.642Z,986.4
2022-11-22T13:46:08.875Z,986.4
2022-11-22T13:47:25.125Z,986.4
2022-11-22T13:48:41.349Z,986.4
2022-11-22T13:49:57.594Z,986.3
2022-11-22T13:51:12.855Z,986.4
2022-11-22T13:52:28.119Z,986.4
2022-11-22T13:53:44.359Z,986.3
2022-11-22T13:55:00.595Z,986.4
2022-11-22T13:56:16.836Z,986.4
2022-11-22T13:57:33.086Z,986.4
2022-11-22T13:58:49.313Z,986.4
2022-11-22T14:00:05.568Z,986.4
2022-11-22T14:01:21.798Z,986.4
2022-11-22T14:02:38.033Z,986.5
2022-11-22T14:03:54.291Z,986.5
2022-11-22T14:05:10.526Z,986.5
2022-11-22T14:06:26.762Z,986.6
2022-11-22T14:07:43.005Z,986.5
2022-11-22T14:08:58.266Z,986.5
2022-11-22T14:10:14.503Z,986.5
2022-11-22T14:11:30.742Z,986.6
2022-11-22T14:12:46.979Z,986.5
2022-11-22T14:14:03.235Z,986.5
2022-11-22T14:15:19.461Z,986.5
2022-11-22T14:16:35.704Z,986.5
2022-11-22T14:17:50.959Z,986.4
2022-11-22T14:19:06.216Z,986.4
2022-11-22T14:20:22.475Z,986.5
2022-11-22T14:21:38.705Z,986.4
2022-11-22T14:22:54.944Z,986.4
2022-11-22T14:24:11.183Z,986.3
2022-11-22T14:25:27.432Z,986.4
2022-11-22T14:26:43.675Z,986.3
2022-11-22T14:27:59.904Z,986.3
2022-11-22T14:29:16.156Z,986.3
2022-11-22T14:30:32.394Z,986.3
2022-11-22T14:31:48.626Z,986.4
2022-11-22T14:33:04.869Z,986.4
2022-11-22T14:34:21.117Z,986.4
2022-11-22T14:35:36.361Z,986.3
2022-11-22T14:36:52.609Z,986.3
2022-11-22T14:38:08.857Z,986.3
2022-11-22T14:39:25.085Z,986.3
2022-11-22T14:40:41.342Z,986.4
2022-11-22T14:41:57.568Z,986.4
2022-11-22T14:43:13.812Z,986.3
2022-11-22T14:44:29.081Z,986.3
2022-11-22T14:45:44.343Z,986.3
2022-11-22T14:46:59.596Z,986.3
2022-11-22T14:48:14.857Z,986.3
2022-11-22T14:49:30.117Z,986.3
2022-11-22T14:50:45.370Z,986.3
2022-11-22T14:52:01.615Z,986.4
2022-11-22T14:53:17.866Z,986.5
2022-11-22T14:54:33.116Z,986.4
2022-11-22T14:55:48.374Z,986.4
2022-11-22T14:57:04.612Z,986.5
2022-11-22T14:58:20.854Z,986.6
2022-11-22T14:59:37.101Z,986.5
2022-11-22T15:00:53.333Z,986.5
2022-11-22T15:02:09.589Z,986.5
2022-11-22T15:03:25.814Z,986.6
2022-11-22T15:04:42.068Z,986.4
2022-11-22T15:05:58.299Z,986.4
2022-11-22T15:07:14.548Z,986.4
2022-11-22T15:08:30.786Z,986.4
2022-11-22T15:09:47.018Z,986.4
2022-11-22T15:11:03.260Z,986.4
2022-11-22T15:12:18.529Z,986.4
2022-11-22T15:13:34.775Z,986.5
2022-11-22T15:14:51.003Z,986.5
2022-11-22T15:16:07.239Z,986.5
2022-11-22T15:42:46.441Z,986.9
2022-11-22T15:45:18.980Z,986.8
2022-11-22T15:46:35.270Z,986.9
2022-11-22T15:47:50.594Z,986.9
2022-11-22T15:49:05.903Z,986.9
2022-11-22T15:50:22.194Z,986.9
2022-11-22T15:51:38.487Z,986.9
2022-11-22T15:52:54.773Z,986.9
2022-11-22T15:54:11.072Z,987
2022-11-22T15:55:27.366Z,987
2022-11-22T15:56:43.663Z,987
2022-11-22T15:57:59.962Z,986.9
2022-11-22T15:59:16.253Z,987
2022-11-22T16:00:32.549Z,987.1
2022-11-22T16:01:48.850Z,987.1
2022-11-22T16:03:05.146Z,987.1
2022-11-22T16:04:21.434Z,987.1
2022-11-22T16:05:36.742Z,987.1
2022-11-22T16:06:53.031Z,987.1
2022-11-22T16:08:09.343Z,987.2
2022-11-22T16:09:25.631Z,987.2
2022-11-22T16:10:41.926Z,987.2
2022-11-22T16:11:58.223Z,987.2
2022-11-22T16:13:14.504Z,987.3
2022-11-22T16:14:29.831Z,987.3
2022-11-22T16:15:45.142Z,987.3
2022-11-22T16:17:00.453Z,987.3
2022-11-22T16:18:15.782Z,987.3
2022-11-22T16:19:31.095Z,987.3
2022-11-22T16:20:46.397Z,987.4
2022-11-22T16:22:02.683Z,987.3
2022-11-22T16:23:18.000Z,987.3
2022-11-22T16:24:33.314Z,987.3
2022-11-22T16:25:49.602Z,987.4
2022-11-22T16:27:05.905Z,987.3
2022-11-22T16:28:22.194Z,987.4
2022-11-22T16:29:38.490Z,987.4
2022-11-22T16:30:54.790Z,987.4
2022-11-22T16:32:11.085Z,987.4
2022-11-22T16:33:27.374Z,987.4
2022-11-22T16:34:43.686Z,987.3
2022-11-22T16:35:59.970Z,987.3
2022-11-22T16:37:16.250Z,987.4
2022-11-22T16:38:32.545Z,987.4
2022-11-22T16:39:48.845Z,987.4
2022-11-22T16:41:04.168Z,987.3
2022-11-22T16:42:20.466Z,987.4
2022-11-22T16:43:36.747Z,987.4
2022-11-22T16:44:53.053Z,987.4
2022-11-22T16:46:09.335Z,987.4
2022-11-22T16:47:25.637Z,987.4
2022-11-22T16:48:41.924Z,987.4
2022-11-22T16:49:57.261Z,987.6
2022-11-22T16:51:12.559Z,987.5
2022-11-22T16:52:28.849Z,987.6
2022-11-22T16:53:45.141Z,987.5
2022-11-22T16:55:01.436Z,987.6
2022-11-22T16:56:17.740Z,987.6
2022-11-22T16:57:34.031Z,987.5
2022-11-22T16:58:50.323Z,987.5
2022-11-22T17:00:06.625Z,987.6